Time;durP1;ratioP1;P1;durP2;ratioP2;P2;SDS_P1;SDS_P2;PMS_P1;PMS_P2;Temp;Humidity;BMP_temperature;BMP_pressure;BME280_temperature;BME280_humidity;BME280_pressure;Samples;Min_cycle;Max_cycle;Signal;HPM_P1;HPM_P2
2023/12/30 00:00:34;;;;;;;15.80;5.68;;;;;;;;;;6267971;28;20526;-65
2023/12/30 00:03:55;;;;;;;11.13;4.80;;;;;;;;;;6262867;28;20060;-65
2023/12/30 00:06:56;;;;;;;13.85;5.35;;;;;;;;;;6265791;28;20085;-66
2023/12/30 00:09:56;;;;;;;11.90;5.20;;;;;;;;;;6268307;28;20045;-65
2023/12/30 00:12:57;;;;;;;13.35;4.82;;;;;;;;;;6264343;28;20052;-65
2023/12/30 00:15:58;;;;;;;10.90;4.85;;;;;;;;;;6266819;28;20056;-65
2023/12/30 00:18:58;;;;;;;10.75;4.90;;;;;;;;;;6271058;28;20052;-66
2023/12/30 00:21:59;;;;;;;10.75;4.63;;;;;;;;;;6264178;28;20053;-65
2023/12/30 00:25:00;;;;;;;10.27;4.97;;;;;;;;;;6278316;28;20041;-65
2023/12/30 00:28:02;;;;;;;10.10;4.95;;;;;;;;;;6266803;28;20401;-65
2023/12/30 00:31:03;;;;;;;8.90;4.50;;;;;;;;;;6266867;28;20138;-64
2023/12/30 00:34:04;;;;;;;12.27;4.40;;;;;;;;;;6264672;28;20040;-65
2023/12/30 00:37:05;;;;;;;10.68;5.40;;;;;;;;;;6268033;28;20308;-66
2023/12/30 00:40:07;;;;;;;11.75;4.82;;;;;;;;;;6266512;28;20423;-65
2023/12/30 00:43:08;;;;;;;11.10;4.65;;;;;;;;;;6259596;28;20049;-66
2023/12/30 00:46:09;;;;;;;10.55;4.65;;;;;;;;;;6265670;28;20052;-66
2023/12/30 00:49:11;;;;;;;9.93;5.53;;;;;;;;;;6266878;28;20068;-65
2023/12/30 00:52:12;;;;;;;10.02;4.90;;;;;;;;;;6257391;28;20045;-65
2023/12/30 00:55:12;;;;;;;9.18;4.80;;;;;;;;;;6267054;28;20056;-66
2023/12/30 00:58:13;;;;;;;7.30;4.28;;;;;;;;;;6267194;28;20471;-65
2023/12/30 01:01:15;;;;;;;10.43;5.10;;;;;;;;;;6263694;28;20067;-65
2023/12/30 01:04:17;;;;;;;10.38;5.30;;;;;;;;;;6266329;28;20052;-66
2023/12/30 01:07:18;;;;;;;8.90;4.72;;;;;;;;;;6271639;28;20068;-66
2023/12/30 01:10:19;;;;;;;9.10;4.70;;;;;;;;;;6269327;28;20053;-66
2023/12/30 01:13:38;;;;;;;11.25;4.63;;;;;;;;;;6263431;28;20041;-65
2023/12/30 01:16:39;;;;;;;12.07;4.40;;;;;;;;;;6266920;28;20114;-65
2023/12/30 01:19:39;;;;;;;10.85;4.45;;;;;;;;;;6252773;28;20561;-66
2023/12/30 01:22:40;;;;;;;9.82;4.70;;;;;;;;;;6262334;28;20481;-65
2023/12/30 01:25:42;;;;;;;7.57;4.25;;;;;;;;;;6272165;28;20129;-65
2023/12/30 01:28:42;;;;;;;9.85;4.68;;;;;;;;;;6270101;28;20057;-65
2023/12/30 01:31:43;;;;;;;9.68;5.10;;;;;;;;;;6270603;28;20056;-65
2023/12/30 01:34:44;;;;;;;10.45;4.60;;;;;;;;;;6271152;28;20072;-65
2023/12/30 01:37:44;;;;;;;16.17;5.47;;;;;;;;;;6268740;28;20052;-66
2023/12/30 01:40:45;;;;;;;10.43;4.57;;;;;;;;;;6269436;28;20955;-66
2023/12/30 01:43:46;;;;;;;12.70;4.80;;;;;;;;;;6271662;28;20594;-65
2023/12/30 01:46:48;;;;;;;12.40;4.38;;;;;;;;;;6295509;28;20109;-65
2023/12/30 01:49:48;;;;;;;11.88;4.50;;;;;;;;;;6301824;28;20246;-65
2023/12/30 01:52:50;;;;;;;10.60;4.65;;;;;;;;;;6306118;28;20127;-65
2023/12/30 01:55:52;;;;;;;10.65;4.45;;;;;;;;;;6307933;28;20048;-65
2023/12/30 01:58:53;;;;;;;11.53;4.77;;;;;;;;;;6309558;28;20052;-65
2023/12/30 02:01:55;;;;;;;10.30;4.45;;;;;;;;;;6309626;28;20366;-65
2023/12/30 02:04:56;;;;;;;11.70;5.07;;;;;;;;;;6309066;28;20044;-65
2023/12/30 02:07:58;;;;;;;10.27;4.50;;;;;;;;;;6307702;28;20407;-65
2023/12/30 02:10:59;;;;;;;9.20;4.10;;;;;;;;;;6309986;28;20042;-65
2023/12/30 02:14:01;;;;;;;7.47;4.20;;;;;;;;;;6313491;28;20410;-65
2023/12/30 02:17:02;;;;;;;12.27;4.75;;;;;;;;;;6312406;28;20040;-65
2023/12/30 02:20:02;;;;;;;8.90;4.25;;;;;;;;;;6313181;28;20102;-65
2023/12/30 02:23:03;;;;;;;9.65;4.53;;;;;;;;;;6305405;28;20938;-65
2023/12/30 02:26:07;;;;;;;10.88;4.57;;;;;;;;;;6313740;28;20052;-65
2023/12/30 02:29:09;;;;;;;8.60;3.78;;;;;;;;;;6315577;28;20040;-65
2023/12/30 02:32:09;;;;;;;8.02;3.83;;;;;;;;;;6313672;28;20453;-65
2023/12/30 02:35:10;;;;;;;8.23;4.15;;;;;;;;;;6315409;28;20048;-65
2023/12/30 02:38:11;;;;;;;9.23;4.20;;;;;;;;;;6315034;28;20052;-66
2023/12/30 02:41:11;;;;;;;8.23;3.90;;;;;;;;;;6313319;28;20055;-65
2023/12/30 02:44:18;;;;;;;8.95;3.90;;;;;;;;;;6314002;28;20052;-65
2023/12/30 02:47:20;;;;;;;7.97;3.60;;;;;;;;;;6314556;28;20147;-65
2023/12/30 02:50:21;;;;;;;7.43;3.78;;;;;;;;;;6313564;28;20769;-65
2023/12/30 02:53:24;;;;;;;9.57;3.75;;;;;;;;;;6312614;28;20036;-66
2023/12/30 02:56:27;;;;;;;11.10;4.10;;;;;;;;;;6312008;28;20051;-66
2023/12/30 02:59:28;;;;;;;10.00;3.95;;;;;;;;;;6307415;28;20157;-65
2023/12/30 03:02:29;;;;;;;8.55;3.70;;;;;;;;;;6315103;28;20044;-65
2023/12/30 03:05:29;;;;;;;7.53;3.80;;;;;;;;;;6314894;28;20060;-65
2023/12/30 03:08:30;;;;;;;9.02;3.85;;;;;;;;;;6314463;28;20048;-64
2023/12/30 03:11:31;;;;;;;7.68;3.25;;;;;;;;;;6312335;28;20055;-64
2023/12/30 03:14:33;;;;;;;8.32;3.53;;;;;;;;;;6312627;28;20502;-65
2023/12/30 03:17:33;;;;;;;;;;;;;;;;;;6314832;28;20520;-64
2023/12/30 03:20:34;;;;;;;7.13;3.38;;;;;;;;;;6314718;28;20260;-65
2023/12/30 03:23:36;;;;;;;8.45;3.85;;;;;;;;;;6312455;28;20048;-65
2023/12/30 03:26:36;;;;;;;7.40;3.30;;;;;;;;;;6313672;28;20708;-64
2023/12/30 03:29:37;;;;;;;7.10;3.47;;;;;;;;;;6308786;28;20071;-65
2023/12/30 03:32:38;;;;;;;8.30;3.53;;;;;;;;;;6311233;28;20420;-64
2023/12/30 03:35:39;;;;;;;7.95;3.53;;;;;;;;;;6314117;28;20044;-64
2023/12/30 03:38:39;;;;;;;7.25;3.58;;;;;;;;;;6312528;28;20042;-65
2023/12/30 03:41:40;;;;;;;8.98;3.42;;;;;;;;;;6313134;28;20082;-64
2023/12/30 03:44:40;;;;;;;5.75;3.30;;;;;;;;;;6311519;28;20048;-64
2023/12/30 03:47:42;;;;;;;10.77;4.03;;;;;;;;;;6314444;28;20105;-65
2023/12/30 03:50:42;;;;;;;7.22;3.80;;;;;;;;;;6314136;28;20490;-65
2023/12/30 03:53:43;;;;;;;9.55;3.85;;;;;;;;;;6309823;28;20044;-64
2023/12/30 03:56:43;;;;;;;6.63;3.17;;;;;;;;;;6311526;28;20483;-65
2023/12/30 03:59:44;;;;;;;6.38;3.10;;;;;;;;;;6311948;28;20454;-63
2023/12/30 04:02:47;;;;;;;8.73;3.22;;;;;;;;;;6312391;28;20728;-64
2023/12/30 04:05:48;;;;;;;6.13;3.50;;;;;;;;;;6312055;28;20161;-65
2023/12/30 04:08:49;;;;;;;9.95;3.50;;;;;;;;;;6312347;28;20069;-64
2023/12/30 04:11:49;;;;;;;6.97;3.08;;;;;;;;;;6309913;28;20044;-64
2023/12/30 04:14:50;;;;;;;7.50;3.25;;;;;;;;;;6311891;28;20060;-64
2023/12/30 04:17:51;;;;;;;7.28;3.45;;;;;;;;;;6313126;28;20051;-64
2023/12/30 04:20:52;;;;;;;7.97;3.58;;;;;;;;;;6313365;28;20048;-64
2023/12/30 04:23:53;;;;;;;8.32;3.20;;;;;;;;;;6310650;28;20084;-65
2023/12/30 04:26:53;;;;;;;7.60;3.80;;;;;;;;;;6312397;28;20044;-65
2023/12/30 04:29:54;;;;;;;6.95;3.95;;;;;;;;;;6314962;28;20083;-65
2023/12/30 04:32:55;;;;;;;6.68;2.97;;;;;;;;;;6298550;28;20506;-65
2023/12/30 04:35:57;;;;;;;6.32;3.28;;;;;;;;;;6289285;28;20033;-65
2023/12/30 04:38:57;;;;;;;7.95;3.20;;;;;;;;;;6290460;28;20091;-64
2023/12/30 04:41:59;;;;;;;7.00;3.72;;;;;;;;;;6289423;28;20501;-64
2023/12/30 04:45:00;;;;;;;7.88;3.47;;;;;;;;;;6288330;28;20052;-64
2023/12/30 04:48:02;;;;;;;6.97;3.25;;;;;;;;;;6290133;28;20519;-65
2023/12/30 04:51:03;;;;;;;5.63;3.08;;;;;;;;;;6290889;28;20071;-64
2023/12/30 04:54:04;;;;;;;8.32;2.78;;;;;;;;;;6287756;28;20140;-66
2023/12/30 04:57:05;;;;;;;7.75;3.00;;;;;;;;;;6288294;28;20052;-64
2023/12/30 05:00:06;;;;;;;6.82;2.90;;;;;;;;;;6291559;28;20055;-66
2023/12/30 05:03:07;;;;;;;7.53;2.90;;;;;;;;;;6288840;28;20110;-64
2023/12/30 05:06:08;;;;;;;5.90;3.15;;;;;;;;;;6287317;28;20083;-64
2023/12/30 05:09:09;;;;;;;5.97;2.80;;;;;;;;;;6288706;28;20484;-64
2023/12/30 05:12:10;;;;;;;7.00;3.03;;;;;;;;;;6289398;28;20053;-63
2023/12/30 05:15:14;;;;;;;5.47;2.78;;;;;;;;;;6287234;28;20499;-64
2023/12/30 05:18:16;;;;;;;6.47;3.10;;;;;;;;;;6287202;28;20047;-66
2023/12/30 05:21:16;;;;;;;7.68;3.40;;;;;;;;;;6288036;28;20509;-66
2023/12/30 05:24:17;;;;;;;6.43;2.90;;;;;;;;;;6287430;28;20083;-66
2023/12/30 05:27:18;;;;;;;7.30;3.20;;;;;;;;;;6289570;28;20488;-65
2023/12/30 05:30:19;;;;;;;8.10;3.22;;;;;;;;;;6289320;28;20757;-66
2023/12/30 05:33:19;;;;;;;6.97;3.30;;;;;;;;;;6287251;28;20052;-66
2023/12/30 05:36:20;;;;;;;6.55;3.22;;;;;;;;;;6286648;28;20051;-66
2023/12/30 05:39:23;;;;;;;8.18;3.20;;;;;;;;;;6287045;28;20546;-66
2023/12/30 05:42:24;;;;;;;6.57;3.25;;;;;;;;;;6286057;28;20045;-68
2023/12/30 05:45:25;;;;;;;7.45;3.25;;;;;;;;;;6285031;28;20052;-66
2023/12/30 05:48:26;;;;;;;10.77;4.93;;;;;;;;;;6293670;28;20373;-66
2023/12/30 05:51:26;;;;;;;9.10;4.60;;;;;;;;;;6294532;28;20056;-66
2023/12/30 05:54:28;;;;;;;8.77;3.30;;;;;;;;;;6292414;28;20048;-65
2023/12/30 05:57:28;;;;;;;6.32;3.00;;;;;;;;;;6294023;28;20500;-66
2023/12/30 06:00:29;;;;;;;8.85;3.95;;;;;;;;;;6293093;28;20139;-66
2023/12/30 06:03:30;;;;;;;6.47;3.35;;;;;;;;;;6291679;28;20472;-66
2023/12/30 06:06:31;;;;;;;8.02;3.80;;;;;;;;;;6293759;28;20330;-65
2023/12/30 06:09:33;;;;;;;6.88;3.40;;;;;;;;;;6291101;28;20127;-65
2023/12/30 06:12:34;;;;;;;6.15;3.13;;;;;;;;;;6292653;28;20044;-66
2023/12/30 06:15:34;;;;;;;7.85;3.20;;;;;;;;;;6294007;28;20047;-66
2023/12/30 06:18:35;;;;;;;7.53;3.20;;;;;;;;;;6293256;28;20056;-66
2023/12/30 06:21:36;;;;;;;7.45;3.13;;;;;;;;;;6293356;28;20048;-66
2023/12/30 06:24:37;;;;;;;7.47;2.88;;;;;;;;;;6291625;28;20122;-65
2023/12/30 06:27:38;;;;;;;8.07;3.25;;;;;;;;;;6293553;28;20796;-65
2023/12/30 06:30:38;;;;;;;7.43;3.42;;;;;;;;;;6291502;28;20388;-65
2023/12/30 06:33:39;;;;;;;6.53;2.80;;;;;;;;;;6291756;28;20036;-65
2023/12/30 06:36:41;;;;;;;7.20;2.70;;;;;;;;;;6293542;28;20045;-65
2023/12/30 06:39:43;;;;;;;6.50;2.75;;;;;;;;;;6292483;28;20187;-64
2023/12/30 06:42:47;;;;;;;6.38;2.78;;;;;;;;;;6290910;28;20062;-63
2023/12/30 06:45:47;;;;;;;5.07;2.50;;;;;;;;;;6290222;28;20495;-64
2023/12/30 06:48:48;;;;;;;6.07;2.70;;;;;;;;;;6292134;28;20052;-64
2023/12/30 06:51:48;;;;;;;6.57;2.63;;;;;;;;;;6291727;28;20070;-64
2023/12/30 06:54:49;;;;;;;6.38;3.08;;;;;;;;;;6289911;28;20060;-64
2023/12/30 06:57:50;;;;;;;4.95;2.50;;;;;;;;;;6291798;28;20059;-64
2023/12/30 07:00:51;;;;;;;4.78;2.30;;;;;;;;;;6291998;28;20417;-64
2023/12/30 07:03:52;;;;;;;5.97;2.50;;;;;;;;;;6288868;28;20093;-64
2023/12/30 07:06:54;;;;;;;5.40;2.65;;;;;;;;;;6289014;28;20041;-62
2023/12/30 07:09:55;;;;;;;5.13;2.78;;;;;;;;;;6291740;28;20072;-63
2023/12/30 07:12:56;;;;;;;5.72;2.83;;;;;;;;;;6292644;28;20041;-64
2023/12/30 07:15:56;;;;;;;6.30;2.67;;;;;;;;;;6292417;28;20498;-62
2023/12/30 07:18:57;;;;;;;7.53;3.00;;;;;;;;;;6293236;28;20395;-62
2023/12/30 07:21:58;;;;;;;5.68;2.67;;;;;;;;;;6292941;28;20056;-62
2023/12/30 07:24:59;;;;;;;6.60;3.00;;;;;;;;;;6291483;28;20056;-63
2023/12/30 07:28:00;;;;;;;5.80;2.90;;;;;;;;;;6284119;28;20051;-63
2023/12/30 07:31:01;;;;;;;6.38;2.90;;;;;;;;;;6290206;28;20076;-62
2023/12/30 07:34:03;;;;;;;7.35;2.60;;;;;;;;;;6291151;28;20048;-61
2023/12/30 07:37:06;;;;;;;8.07;3.35;;;;;;;;;;6292014;28;20044;-61
2023/12/30 07:40:07;;;;;;;7.03;2.95;;;;;;;;;;6292921;28;20040;-61
2023/12/30 07:43:08;;;;;;;6.37;2.90;;;;;;;;;;6291649;28;20105;-61
2023/12/30 07:46:09;;;;;;;6.65;3.22;;;;;;;;;;6291630;28;20136;-61
2023/12/30 07:49:10;;;;;;;7.07;2.72;;;;;;;;;;6292845;28;20448;-61
2023/12/30 07:52:11;;;;;;;6.78;3.17;;;;;;;;;;6292513;28;20055;-62
2023/12/30 07:55:12;;;;;;;5.80;2.75;;;;;;;;;;6291019;28;20049;-63
2023/12/30 07:58:12;;;;;;;6.90;2.63;;;;;;;;;;6292026;28;20053;-62
2023/12/30 08:01:13;;;;;;;13.35;5.35;;;;;;;;;;6292008;28;20157;-61
2023/12/30 08:04:14;;;;;;;10.88;4.15;;;;;;;;;;6290534;28;20045;-62
2023/12/30 08:07:15;;;;;;;7.50;3.03;;;;;;;;;;6287648;28;20060;-62
2023/12/30 08:10:16;;;;;;;8.27;4.22;;;;;;;;;;6291760;28;20051;-61
2023/12/30 08:13:17;;;;;;;6.70;2.90;;;;;;;;;;6289470;28;20059;-62
2023/12/30 08:16:18;;;;;;;7.90;3.30;;;;;;;;;;6291004;28;20048;-62
2023/12/30 08:19:21;;;;;;;6.55;2.90;;;;;;;;;;6291348;28;20641;-61
2023/12/30 08:22:23;;;;;;;24.67;9.80;;;;;;;;;;6290211;28;20052;-62
2023/12/30 08:25:24;;;;;;;10.00;5.50;;;;;;;;;;6290301;28;20058;-62
2023/12/30 08:28:24;;;;;;;10.07;4.95;;;;;;;;;;6291481;28;20040;-62
2023/12/30 08:31:25;;;;;;;8.70;3.97;;;;;;;;;;6290358;28;20388;-64
2023/12/30 08:34:27;;;;;;;9.55;4.38;;;;;;;;;;6289521;28;20468;-62
2023/12/30 08:37:30;;;;;;;8.73;4.03;;;;;;;;;;6290756;28;20442;-62
2023/12/30 08:40:31;;;;;;;6.55;3.15;;;;;;;;;;6291897;28;20052;-63
2023/12/30 08:43:33;;;;;;;6.57;3.00;;;;;;;;;;6276278;28;20494;-61
2023/12/30 08:46:34;;;;;;;7.22;3.20;;;;;;;;;;6290240;28;20052;-60
2023/12/30 08:49:36;;;;;;;6.60;3.25;;;;;;;;;;6291320;28;20040;-65
2023/12/30 08:52:36;;;;;;;6.20;2.83;;;;;;;;;;6290920;28;20463;-70
2023/12/30 08:55:37;;;;;;;7.90;3.60;;;;;;;;;;6289182;28;20036;-63
2023/12/30 08:58:38;;;;;;;8.98;3.30;;;;;;;;;;6291092;28;20044;-66
2023/12/30 09:01:39;;;;;;;7.28;3.05;;;;;;;;;;6290922;28;20756;-65
2023/12/30 09:04:39;;;;;;;7.57;3.05;;;;;;;;;;6289212;28;20052;-62
2023/12/30 09:07:40;;;;;;;8.30;3.00;;;;;;;;;;6290504;28;20064;-61
2023/12/30 09:10:41;;;;;;;7.47;2.88;;;;;;;;;;6290527;28;20048;-63
2023/12/30 09:13:41;;;;;;;6.55;3.30;;;;;;;;;;6288983;28;20163;-64
2023/12/30 09:16:42;;;;;;;11.27;5.47;;;;;;;;;;6289641;28;20570;-64
2023/12/30 09:19:43;;;;;;;9.90;6.10;;;;;;;;;;6290555;28;20455;-65
2023/12/30 09:22:45;;;;;;;9.05;3.60;;;;;;;;;;6289704;28;20824;-64
2023/12/30 09:25:46;;;;;;;6.22;2.45;;;;;;;;;;6288735;28;20052;-64
2023/12/30 09:28:46;;;;;;;6.47;2.90;;;;;;;;;;6290240;28;20110;-65
2023/12/30 09:31:47;;;;;;;5.18;2.90;;;;;;;;;;6290488;28;20080;-63
2023/12/30 09:34:47;;;;;;;5.53;2.70;;;;;;;;;;6288974;28;20056;-65
2023/12/30 09:37:48;;;;;;;6.00;2.80;;;;;;;;;;6289919;28;20044;-65
2023/12/30 09:40:53;;;;;;;6.60;2.47;;;;;;;;;;6290534;28;20040;-64
2023/12/30 09:43:55;;;;;;;5.90;2.75;;;;;;;;;;6289225;28;20476;-66
2023/12/30 09:46:56;;;;;;;5.80;2.50;;;;;;;;;;6289535;28;20044;-65
2023/12/30 09:49:57;;;;;;;5.90;2.60;;;;;;;;;;6289607;28;20041;-66
2023/12/30 09:52:59;;;;;;;6.45;2.65;;;;;;;;;;6287925;28;20127;-67
2023/12/30 09:56:00;;;;;;;6.23;2.63;;;;;;;;;;6284878;28;20041;-65
2023/12/30 09:59:02;;;;;;;4.95;2.28;;;;;;;;;;6287154;28;20052;-66
2023/12/30 10:02:06;;;;;;;6.40;2.50;;;;;;;;;;6288687;28;20052;-65
2023/12/30 10:05:07;;;;;;;6.68;2.75;;;;;;;;;;6287159;28;20066;-67
2023/12/30 10:08:09;;;;;;;7.47;2.97;;;;;;;;;;6285737;28;20049;-66
2023/12/30 10:11:11;;;;;;;7.15;2.45;;;;;;;;;;6290021;28;20052;-66
2023/12/30 10:14:12;;;;;;;6.13;2.80;;;;;;;;;;6286713;28;20049;-66
2023/12/30 10:17:13;;;;;;;5.13;3.05;;;;;;;;;;6286362;28;20519;-66
2023/12/30 10:20:17;;;;;;;5.63;2.28;;;;;;;;;;6286705;28;20036;-66
2023/12/30 10:23:18;;;;;;;7.72;2.40;;;;;;;;;;6288494;28;20051;-66
2023/12/30 10:26:19;;;;;;;5.22;2.50;;;;;;;;;;6284895;28;20053;-67
2023/12/30 10:29:19;;;;;;;7.55;3.05;;;;;;;;;;6288531;28;20472;-66
2023/12/30 10:32:21;;;;;;;8.43;2.67;;;;;;;;;;6288318;28;20510;-66
2023/12/30 10:35:21;;;;;;;6.18;2.70;;;;;;;;;;6291652;28;20801;-66
2023/12/30 10:38:23;;;;;;;7.72;2.95;;;;;;;;;;6291141;28;20127;-66
2023/12/30 10:41:24;;;;;;;6.80;3.03;;;;;;;;;;6289505;28;20048;-66
2023/12/30 10:44:24;;;;;;;14.13;2.80;;;;;;;;;;6293027;28;20134;-66
2023/12/30 10:47:26;;;;;;;7.25;2.75;;;;;;;;;;6291539;28;20049;-65
2023/12/30 10:50:27;;;;;;;8.50;2.97;;;;;;;;;;6291988;28;20044;-66
2023/12/30 10:53:45;;;;;;;13.18;6.10;;;;;;;;;;6291524;28;20062;-66
2023/12/30 10:56:57;;;;;;;13.07;6.38;;;;;;;;;;6288548;28;20044;-65
2023/12/30 10:59:59;;;;;;;13.77;5.70;;;;;;;;;;6289057;28;20119;-65
2023/12/30 11:03:00;;;;;;;15.27;6.65;;;;;;;;;;6292066;28;20564;-66
2023/12/30 11:06:12;;;;;;;14.65;6.28;;;;;;;;;;6287998;28;20048;-66
2023/12/30 11:09:18;;;;;;;13.80;6.38;;;;;;;;;;6275552;28;20102;-66
2023/12/30 11:12:19;;;;;;;13.10;5.43;;;;;;;;;;6291049;28;20056;-66
2023/12/30 11:15:29;;;;;;;11.40;5.40;;;;;;;;;;6291592;28;20132;-67
2023/12/30 11:18:55;;;;;;;10.75;5.22;;;;;;;;;;6288687;28;20487;-67
2023/12/30 11:21:59;;;;;;;12.60;5.53;;;;;;;;;;6285206;28;20046;-66
2023/12/30 11:25:00;;;;;;;14.88;6.05;;;;;;;;;;6291506;28;20076;-67
2023/12/30 11:28:19;;;;;;;13.90;5.90;;;;;;;;;;6291389;28;20044;-67
2023/12/30 11:31:30;;;;;;;14.45;6.18;;;;;;;;;;6289245;28;20814;-67
2023/12/30 11:34:31;;;;;;;12.38;5.32;;;;;;;;;;6292496;28;20048;-66
2023/12/30 11:37:34;;;;;;;10.48;4.20;;;;;;;;;;6291288;28;20049;-66
2023/12/30 11:40:41;;;;;;;9.65;4.28;;;;;;;;;;6290666;28;20741;-66
2023/12/30 11:43:41;;;;;;;9.90;4.65;;;;;;;;;;6289624;28;20052;-66
2023/12/30 11:46:42;;;;;;;8.45;4.05;;;;;;;;;;6290807;28;20901;-64
2023/12/30 11:49:44;;;;;;;14.40;6.88;;;;;;;;;;6287715;28;20049;-66
2023/12/30 11:52:46;;;;;;;11.95;7.15;;;;;;;;;;6289055;28;20045;-64
2023/12/30 11:55:47;;;;;;;;;;;;;;;;;;6291498;28;20538;-67
2023/12/30 11:58:51;;;;;;;11.95;6.25;;;;;;;;;;6291038;28;19959;-64
2023/12/30 12:01:52;;;;;;;9.05;4.25;;;;;;;;;;6287775;28;20048;-66
2023/12/30 12:04:52;;;;;;;8.63;4.78;;;;;;;;;;6288704;28;20059;-65
2023/12/30 12:07:53;;;;;;;9.52;4.50;;;;;;;;;;6290510;28;20052;-65
2023/12/30 12:10:55;;;;;;;10.23;4.53;;;;;;;;;;6289400;28;20048;-66
2023/12/30 12:13:59;;;;;;;13.25;4.93;;;;;;;;;;6288739;28;20082;-65
2023/12/30 12:17:07;;;;;;;11.52;4.90;;;;;;;;;;6288957;28;20046;-65
2023/12/30 12:20:10;;;;;;;11.20;5.47;;;;;;;;;;6289721;28;20056;-66
2023/12/30 12:23:11;;;;;;;14.57;5.40;;;;;;;;;;6288424;28;20292;-65
2023/12/30 12:26:12;;;;;;;12.63;5.05;;;;;;;;;;6289653;28;20069;-66
2023/12/30 12:29:13;;;;;;;10.10;4.75;;;;;;;;;;6288437;28;20051;-64
2023/12/30 12:32:15;;;;;;;12.30;5.47;;;;;;;;;;6289359;28;20048;-63
2023/12/30 12:35:16;;;;;;;10.75;4.50;;;;;;;;;;6284982;28;20607;-65
2023/12/30 12:38:17;;;;;;;12.52;3.80;;;;;;;;;;6285799;28;20052;-65
2023/12/30 12:41:17;;;;;;;9.38;3.85;;;;;;;;;;6285669;28;20453;-66
2023/12/30 12:44:19;;;;;;;7.38;3.17;;;;;;;;;;6286504;28;20048;-63
2023/12/30 12:47:20;;;;;;;9.68;3.13;;;;;;;;;;6289755;28;20056;-65
2023/12/30 12:50:20;;;;;;;7.60;3.10;;;;;;;;;;6291746;28;20067;-62
2023/12/30 12:53:23;;;;;;;10.65;2.97;;;;;;;;;;6289597;28;20072;-66
2023/12/30 12:56:23;;;;;;;18.30;7.22;;;;;;;;;;6290123;28;20062;-63
2023/12/30 12:59:24;;;;;;;7.18;2.70;;;;;;;;;;6289712;28;20072;-63
2023/12/30 13:02:26;;;;;;;7.97;3.35;;;;;;;;;;6290393;28;20121;-65
2023/12/30 13:05:27;;;;;;;7.22;2.90;;;;;;;;;;6289735;28;20389;-65
2023/12/30 13:08:29;;;;;;;11.00;4.22;;;;;;;;;;6291442;28;20059;-63
2023/12/30 13:11:32;;;;;;;6.80;2.78;;;;;;;;;;6290799;28;20052;-63
2023/12/30 13:14:34;;;;;;;11.50;6.10;;;;;;;;;;6289209;28;20053;-63
2023/12/30 13:17:35;;;;;;;6.68;2.55;;;;;;;;;;6295866;28;20044;-63
2023/12/30 13:20:35;;;;;;;8.00;3.25;;;;;;;;;;6290988;28;20044;-65
2023/12/30 13:23:36;;;;;;;9.27;4.53;;;;;;;;;;6288924;28;20053;-66
2023/12/30 13:26:37;;;;;;;10.27;4.68;;;;;;;;;;6290668;28;20044;-65
2023/12/30 13:29:38;;;;;;;15.82;6.50;;;;;;;;;;6285574;28;20801;-66
2023/12/30 13:32:39;;;;;;;13.75;4.30;;;;;;;;;;6275636;28;20056;-65
2023/12/30 13:35:40;;;;;;;11.90;3.80;;;;;;;;;;6269158;28;20045;-64
2023/12/30 13:38:43;;;;;;;9.18;3.75;;;;;;;;;;6268601;28;20096;-63
2023/12/30 13:41:44;;;;;;;6.15;2.00;;;;;;;;;;6263377;28;20064;-63
2023/12/30 13:44:45;;;;;;;6.32;2.38;;;;;;;;;;6262295;28;20711;-64
2023/12/30 13:48:24;;;;;;;10.57;3.50;;;;;;;;;;6266705;28;20103;-62
2023/12/30 13:51:07;;;;;;;9.23;3.05;;;;;;;;;;6266967;28;20486;-65
2023/12/30 13:54:09;;;;;;;12.23;3.63;;;;;;;;;;6262573;28;20153;-65
2023/12/30 13:57:13;;;;;;;12.05;3.78;;;;;;;;;;6267519;28;20752;-64
2023/12/30 14:00:18;;;;;;;21.40;5.93;;;;;;;;;;6272297;28;20049;-64
2023/12/30 14:03:23;;;;;;;17.63;5.82;;;;;;;;;;6263148;28;20462;-64
2023/12/30 14:06:32;;;;;;;;;;;;;;;;;;6263806;28;20786;-62
2023/12/30 14:13:00;;;;;;;37.33;16.75;;;;;;;;;;6277214;28;20050;-63
2023/12/30 14:16:01;;;;;;;24.27;9.77;;;;;;;;;;6285350;28;20098;-63
2023/12/30 14:19:02;;;;;;;24.70;11.93;;;;;;;;;;6272846;28;20072;-63
2023/12/30 14:22:04;;;;;;;20.35;7.15;;;;;;;;;;6274850;28;20508;-64
2023/12/30 14:25:07;;;;;;;18.42;8.23;;;;;;;;;;6272584;28;20052;-64
2023/12/30 14:28:09;;;;;;;18.17;7.72;;;;;;;;;;6275355;28;20049;-62
2023/12/30 14:31:12;;;;;;;19.63;8.23;;;;;;;;;;6267603;28;20740;-62
2023/12/30 14:34:13;;;;;;;17.92;7.15;;;;;;;;;;6269745;28;20126;-64
2023/12/30 14:37:14;;;;;;;18.95;7.63;;;;;;;;;;6271014;28;20056;-64
2023/12/30 14:40:15;;;;;;;19.13;7.07;;;;;;;;;;6273516;28;20052;-62
2023/12/30 14:43:16;;;;;;;20.45;7.47;;;;;;;;;;6271220;28;20384;-65
2023/12/30 14:46:17;;;;;;;20.02;7.25;;;;;;;;;;6273973;28;20060;-66
2023/12/30 14:49:19;;;;;;;19.00;7.35;;;;;;;;;;6270778;28;20211;-65
2023/12/30 14:52:19;;;;;;;21.52;8.35;;;;;;;;;;6273114;28;20044;-63
2023/12/30 14:55:20;;;;;;;19.38;8.00;;;;;;;;;;6267581;28;20164;-61
2023/12/30 14:58:21;;;;;;;22.65;8.65;;;;;;;;;;6270551;28;20783;-63
2023/12/30 15:01:22;;;;;;;33.08;15.15;;;;;;;;;;6269739;28;20081;-62
2023/12/30 15:04:22;;;;;;;25.20;10.30;;;;;;;;;;6268696;28;20092;-68
2023/12/30 15:07:25;;;;;;;35.90;14.20;;;;;;;;;;6277207;28;20061;-67
2023/12/30 15:10:25;;;;;;;47.28;17.75;;;;;;;;;;6274638;28;20167;-62
2023/12/30 15:13:26;;;;;;;38.88;14.75;;;;;;;;;;6269894;28;20138;-64
2023/12/30 15:16:28;;;;;;;53.42;18.45;;;;;;;;;;6271379;28;20064;-67
2023/12/30 15:19:29;;;;;;;62.53;21.02;;;;;;;;;;6266378;28;20385;-66
2023/12/30 15:22:29;;;;;;;59.10;20.38;;;;;;;;;;6275310;28;20056;-64
2023/12/30 15:25:33;;;;;;;77.95;27.85;;;;;;;;;;6269911;28;21261;-64
2023/12/30 15:28:35;;;;;;;85.00;35.63;;;;;;;;;;6265775;28;20082;-64
2023/12/30 15:31:37;;;;;;;77.95;32.83;;;;;;;;;;6273430;28;20496;-63
2023/12/30 15:34:38;;;;;;;46.70;18.35;;;;;;;;;;6269382;28;20049;-64
2023/12/30 15:37:39;;;;;;;49.35;19.10;;;;;;;;;;6266595;28;20048;-66
2023/12/30 15:40:43;;;;;;;58.05;23.83;;;;;;;;;;6271344;28;20049;-64
2023/12/30 15:43:43;;;;;;;61.90;27.13;;;;;;;;;;6274653;28;20602;-64
2023/12/30 15:46:44;;;;;;;71.05;28.30;;;;;;;;;;6267781;28;20052;-66
2023/12/30 15:49:45;;;;;;;71.10;27.08;;;;;;;;;;6266372;28;20173;-66
2023/12/30 15:52:45;;;;;;;73.13;26.13;;;;;;;;;;6272164;28;20044;-66
2023/12/30 15:55:48;;;;;;;77.60;27.55;;;;;;;;;;6271036;28;20052;-65
2023/12/30 15:58:49;;;;;;;113.40;39.47;;;;;;;;;;6274505;28;20033;-66
2023/12/30 16:01:49;;;;;;;100.60;33.85;;;;;;;;;;6270077;28;20597;-66
2023/12/30 16:04:50;;;;;;;57.00;19.45;;;;;;;;;;6283296;28;20475;-64
2023/12/30 16:07:51;;;;;;;37.50;14.10;;;;;;;;;;6274943;28;20057;-67
2023/12/30 16:10:52;;;;;;;37.75;14.45;;;;;;;;;;6270496;28;20052;-62
2023/12/30 16:13:53;;;;;;;41.78;15.15;;;;;;;;;;6265330;28;20056;-63
2023/12/30 16:16:54;;;;;;;46.35;16.02;;;;;;;;;;6266971;28;20423;-63
2023/12/30 16:19:55;;;;;;;38.45;12.93;;;;;;;;;;6270514;28;20048;-62
2023/12/30 16:22:55;;;;;;;140.25;39.20;;;;;;;;;;6276964;28;20440;-62
2023/12/30 16:25:56;;;;;;;135.20;45.72;;;;;;;;;;6267006;28;20057;-62
2023/12/30 16:28:57;;;;;;;125.50;45.28;;;;;;;;;;6265859;28;20450;-62
2023/12/30 16:32:00;;;;;;;131.32;33.78;;;;;;;;;;6270791;28;20184;-65
2023/12/30 16:35:01;;;;;;;117.22;34.50;;;;;;;;;;6266314;28;20049;-61
2023/12/30 16:38:02;;;;;;;134.55;43.67;;;;;;;;;;6268058;28;20813;-67
2023/12/30 16:41:03;;;;;;;122.10;38.53;;;;;;;;;;6266207;28;20041;-65
2023/12/30 16:44:04;;;;;;;146.13;40.25;;;;;;;;;;6268771;28;20149;-65
2023/12/30 16:47:05;;;;;;;144.63;39.88;;;;;;;;;;6262863;28;20466;-63
2023/12/30 16:50:07;;;;;;;101.47;29.75;;;;;;;;;;6267300;28;20049;-63
2023/12/30 16:53:08;;;;;;;108.20;32.05;;;;;;;;;;6267565;28;20053;-65
2023/12/30 16:56:10;;;;;;;102.25;31.92;;;;;;;;;;6275687;28;20068;-64
2023/12/30 16:59:10;;;;;;;93.15;27.15;;;;;;;;;;6265159;28;20057;-65
2023/12/30 17:02:11;;;;;;;30.08;9.32;;;;;;;;;;6267395;28;20223;-60
2023/12/30 17:05:12;;;;;;;74.95;22.98;;;;;;;;;;6267471;28;20060;-63
2023/12/30 17:08:13;;;;;;;57.60;22.15;;;;;;;;;;6264138;28;20044;-62
2023/12/30 17:11:14;;;;;;;83.88;28.48;;;;;;;;;;6273479;28;20496;-62
2023/12/30 17:14:15;;;;;;;73.43;25.00;;;;;;;;;;6265599;28;20087;-66
2023/12/30 17:17:16;;;;;;;47.03;17.98;;;;;;;;;;6264920;28;20137;-61
2023/12/30 17:20:17;;;;;;;47.28;17.08;;;;;;;;;;6265401;28;20490;-65
2023/12/30 17:23:17;;;;;;;61.80;21.95;;;;;;;;;;6267332;28;20056;-65
2023/12/30 17:26:18;;;;;;;62.08;23.48;;;;;;;;;;6269186;28;20139;-63
2023/12/30 17:29:19;;;;;;;58.20;24.27;;;;;;;;;;6271619;28;20071;-64
2023/12/30 17:32:20;;;;;;;70.72;31.35;;;;;;;;;;6272867;28;20072;-63
2023/12/30 17:35:22;;;;;;;73.47;28.17;;;;;;;;;;6269199;28;20518;-64
2023/12/30 17:38:25;;;;;;;61.72;25.13;;;;;;;;;;6266577;28;20434;-63
2023/12/30 17:41:26;;;;;;;78.22;32.47;;;;;;;;;;6270098;28;20139;-64
2023/12/30 17:44:30;;;;;;;85.70;30.05;;;;;;;;;;6271861;28;20463;-67
2023/12/30 17:47:32;;;;;;;53.22;21.88;;;;;;;;;;6273503;28;20655;-66
2023/12/30 17:50:35;;;;;;;56.88;20.35;;;;;;;;;;6277704;28;20057;-67
2023/12/30 17:53:37;;;;;;;49.37;18.10;;;;;;;;;;6274046;28;20049;-67
2023/12/30 17:56:38;;;;;;;40.78;14.95;;;;;;;;;;6276480;28;20075;-67
2023/12/30 17:59:39;;;;;;;51.75;20.60;;;;;;;;;;6272574;28;20078;-67
2023/12/30 18:02:42;;;;;;;48.95;19.17;;;;;;;;;;6276828;28;20036;-65